sensor_id;sensor_type;location;lat;lon;timestamp;temperature;humidity
24146;DHT22;12308;50.948;4.706;2022-07-04T00:00:00;15.80;99.90
24146;DHT22;12308;50.948;4.706;2022-07-04T00:02:26;15.90;99.90
24146;DHT22;12308;50.948;4.706;2022-07-04T00:04:51;15.80;99.90
24146;DHT22;12308;50.948;4.706;2022-07-04T00:07:17;15.80;99.90
24146;DHT22;12308;50.948;4.706;2022-07-04T00:09:42;15.80;99.90
24146;DHT22;12308;50.948;4.706;2022-07-04T00:12:08;15.80;99.90
24146;DHT22;12308;50.948;4.706;2022-07-04T00:14:34;15.70;99.90
24146;DHT22;12308;50.948;4.706;2022-07-04T00:17:00;15.70;99.90
24146;DHT22;12308;50.948;4.706;2022-07-04T00:19:25;15.70;99.90
24146;DHT22;12308;50.948;4.706;2022-07-04T00:21:51;15.70;99.90
24146;DHT22;12308;50.948;4.706;2022-07-04T00:24:17;15.70;99.90
24146;DHT22;12308;50.948;4.706;2022-07-04T00:26:43;15.70;99.90
24146;DHT22;12308;50.948;4.706;2022-07-04T00:29:08;15.60;99.90
24146;DHT22;12308;50.948;4.706;2022-07-04T00:31:34;15.60;99.90
24146;DHT22;12308;50.948;4.706;2022-07-04T00:33:59;15.50;99.90
24146;DHT22;12308;50.948;4.706;2022-07-04T00:36:25;15.50;99.90
24146;DHT22;12308;50.948;4.706;2022-07-04T00:38:51;15.50;99.90
24146;DHT22;12308;50.948;4.706;2022-07-04T00:41:16;15.40;99.90
24146;DHT22;12308;50.948;4.706;2022-07-04T00:43:42;15.40;99.90
24146;DHT22;12308;50.948;4.706;2022-07-04T00:46:07;15.50;99.90
24146;DHT22;12308;50.948;4.706;2022-07-04T00:48:33;15.50;99.90
24146;DHT22;12308;50.948;4.706;2022-07-04T00:50:59;15.60;99.90
24146;DHT22;12308;50.948;4.706;2022-07-04T00:53:25;15.50;99.90
24146;DHT22;12308;50.948;4.706;2022-07-04T00:55:52;15.50;99.90
24146;DHT22;12308;50.948;4.706;2022-07-04T00:58:22;15.40;99.90
24146;DHT22;12308;50.948;4.706;2022-07-04T01:00:49;15.30;99.90
24146;DHT22;12308;50.948;4.706;2022-07-04T01:03:15;15.20;99.90
24146;DHT22;12308;50.948;4.706;2022-07-04T01:05:42;15.30;99.90
24146;DHT22;12308;50.948;4.706;2022-07-04T01:08:07;15.30;99.90
24146;DHT22;12308;50.948;4.706;2022-07-04T01:10:33;15.20;99.90
24146;DHT22;12308;50.948;4.706;2022-07-04T01:12:59;15.20;99.90
24146;DHT22;12308;50.948;4.706;2022-07-04T01:15:25;15.10;99.90
24146;DHT22;12308;50.948;4.706;2022-07-04T01:17:50;15.10;99.90
24146;DHT22;12308;50.948;4.706;2022-07-04T01:20:16;15.00;99.90
24146;DHT22;12308;50.948;4.706;2022-07-04T01:22:43;15.00;99.90
24146;DHT22;12308;50.948;4.706;2022-07-04T01:25:09;14.90;99.90
24146;DHT22;12308;50.948;4.706;2022-07-04T01:27:35;14.90;99.90
24146;DHT22;12308;50.948;4.706;2022-07-04T01:30:01;14.90;99.90
24146;DHT22;12308;50.948;4.706;2022-07-04T01:32:26;14.90;99.90
24146;DHT22;12308;50.948;4.706;2022-07-04T01:34:52;14.90;99.90
24146;DHT22;12308;50.948;4.706;2022-07-04T01:37:18;14.90;99.90
24146;DHT22;12308;50.948;4.706;2022-07-04T01:39:44;14.90;99.90
24146;DHT22;12308;50.948;4.706;2022-07-04T01:42:09;14.80;99.90
24146;DHT22;12308;50.948;4.706;2022-07-04T01:44:36;14.80;99.90
24146;DHT22;12308;50.948;4.706;2022-07-04T01:47:02;14.60;99.90
24146;DHT22;12308;50.948;4.706;2022-07-04T01:49:28;14.50;99.90
24146;DHT22;12308;50.948;4.706;2022-07-04T01:51:53;14.50;99.90
24146;DHT22;12308;50.948;4.706;2022-07-04T01:54:19;14.30;99.90
24146;DHT22;12308;50.948;4.706;2022-07-04T01:56:45;14.40;99.90
24146;DHT22;12308;50.948;4.706;2022-07-04T01:59:11;14.40;99.90
24146;DHT22;12308;50.948;4.706;2022-07-04T02:01:36;14.20;99.90
24146;DHT22;12308;50.948;4.706;2022-07-04T02:04:04;14.20;99.90
24146;DHT22;12308;50.948;4.706;2022-07-04T02:06:31;14.20;99.90
24146;DHT22;12308;50.948;4.706;2022-07-04T02:08:57;14.20;99.90
24146;DHT22;12308;50.948;4.706;2022-07-04T02:11:41;14.20;99.90
24146;DHT22;12308;50.948;4.706;2022-07-04T02:14:25;14.20;99.90
24146;DHT22;12308;50.948;4.706;2022-07-04T02:16:51;14.20;99.90
24146;DHT22;12308;50.948;4.706;2022-07-04T02:19:17;14.20;99.90
24146;DHT22;12308;50.948;4.706;2022-07-04T02:21:44;14.20;99.90
24146;DHT22;12308;50.948;4.706;2022-07-04T02:24:10;14.20;99.90
24146;DHT22;12308;50.948;4.706;2022-07-04T02:26:36;14.20;99.90
24146;DHT22;12308;50.948;4.706;2022-07-04T02:29:01;14.20;99.90
24146;DHT22;12308;50.948;4.706;2022-07-04T02:31:27;14.10;99.90
24146;DHT22;12308;50.948;4.706;2022-07-04T02:33:52;14.00;99.90
24146;DHT22;12308;50.948;4.706;2022-07-04T02:36:18;14.00;99.90
24146;DHT22;12308;50.948;4.706;2022-07-04T02:38:44;13.90;99.90
24146;DHT22;12308;50.948;4.706;2022-07-04T02:41:09;13.90;99.90
24146;DHT22;12308;50.948;4.706;2022-07-04T02:43:35;13.90;99.90
24146;DHT22;12308;50.948;4.706;2022-07-04T02:46:00;14.00;99.90
24146;DHT22;12308;50.948;4.706;2022-07-04T02:48:26;14.10;99.90
24146;DHT22;12308;50.948;4.706;2022-07-04T02:50:51;14.10;99.90
24146;DHT22;12308;50.948;4.706;2022-07-04T02:53:17;14.20;99.90
24146;DHT22;12308;50.948;4.706;2022-07-04T02:55:43;14.20;99.90
24146;DHT22;12308;50.948;4.706;2022-07-04T02:58:08;14.10;99.90
24146;DHT22;12308;50.948;4.706;2022-07-04T03:00:34;14.10;99.90
24146;DHT22;12308;50.948;4.706;2022-07-04T03:03:00;14.10;99.90
24146;DHT22;12308;50.948;4.706;2022-07-04T03:05:25;14.10;99.90
24146;DHT22;12308;50.948;4.706;2022-07-04T03:07:53;14.10;99.90
24146;DHT22;12308;50.948;4.706;2022-07-04T03:10:19;14.10;99.90
24146;DHT22;12308;50.948;4.706;2022-07-04T03:12:45;14.10;99.90
24146;DHT22;12308;50.948;4.706;2022-07-04T03:15:10;14.10;99.90
24146;DHT22;12308;50.948;4.706;2022-07-04T03:17:36;14.20;99.90
24146;DHT22;12308;50.948;4.706;2022-07-04T03:20:02;14.20;99.90
24146;DHT22;12308;50.948;4.706;2022-07-04T03:22:27;14.20;99.90
24146;DHT22;12308;50.948;4.706;2022-07-04T03:24:53;14.10;99.90
24146;DHT22;12308;50.948;4.706;2022-07-04T03:27:20;14.10;99.90
24146;DHT22;12308;50.948;4.706;2022-07-04T03:29:45;14.10;99.90
24146;DHT22;12308;50.948;4.706;2022-07-04T03:32:11;14.10;99.90
24146;DHT22;12308;50.948;4.706;2022-07-04T03:34:36;14.00;99.90
24146;DHT22;12308;50.948;4.706;2022-07-04T03:37:02;14.00;99.90
24146;DHT22;12308;50.948;4.706;2022-07-04T03:39:28;14.00;99.90
24146;DHT22;12308;50.948;4.706;2022-07-04T03:41:54;14.00;99.90
24146;DHT22;12308;50.948;4.706;2022-07-04T03:44:19;14.00;99.90
24146;DHT22;12308;50.948;4.706;2022-07-04T03:46:45;13.90;99.90
24146;DHT22;12308;50.948;4.706;2022-07-04T03:49:10;14.00;99.90
24146;DHT22;12308;50.948;4.706;2022-07-04T03:51:36;14.00;99.90
24146;DHT22;12308;50.948;4.706;2022-07-04T03:54:02;14.00;99.90
24146;DHT22;12308;50.948;4.706;2022-07-04T03:56:28;14.00;99.90
24146;DHT22;12308;50.948;4.706;2022-07-04T03:58:53;14.00;99.90
24146;DHT22;12308;50.948;4.706;2022-07-04T04:01:19;14.00;99.90
24146;DHT22;12308;50.948;4.706;2022-07-04T04:03:45;14.00;99.90
24146;DHT22;12308;50.948;4.706;2022-07-04T04:06:30;14.00;99.90
24146;DHT22;12308;50.948;4.706;2022-07-04T04:08:56;14.10;99.90
24146;DHT22;12308;50.948;4.706;2022-07-04T04:11:22;14.10;99.90
24146;DHT22;12308;50.948;4.706;2022-07-04T04:13:48;14.10;99.90
24146;DHT22;12308;50.948;4.706;2022-07-04T04:16:14;14.10;99.90
24146;DHT22;12308;50.948;4.706;2022-07-04T04:18:39;14.20;99.90
24146;DHT22;12308;50.948;4.706;2022-07-04T04:21:05;14.30;99.90
24146;DHT22;12308;50.948;4.706;2022-07-04T04:23:31;14.40;99.90
24146;DHT22;12308;50.948;4.706;2022-07-04T04:25:57;14.40;99.90
24146;DHT22;12308;50.948;4.706;2022-07-04T04:28:23;14.50;99.90
24146;DHT22;12308;50.948;4.706;2022-07-04T04:30:49;14.50;99.90
24146;DHT22;12308;50.948;4.706;2022-07-04T04:33:15;14.50;99.90
24146;DHT22;12308;50.948;4.706;2022-07-04T04:35:41;14.60;99.90
24146;DHT22;12308;50.948;4.706;2022-07-04T04:38:06;14.70;99.90
24146;DHT22;12308;50.948;4.706;2022-07-04T04:40:32;14.70;99.90
24146;DHT22;12308;50.948;4.706;2022-07-04T04:42:58;14.70;99.90
24146;DHT22;12308;50.948;4.706;2022-07-04T04:45:24;14.80;99.90
24146;DHT22;12308;50.948;4.706;2022-07-04T04:47:49;14.80;99.90
24146;DHT22;12308;50.948;4.706;2022-07-04T04:50:15;14.80;99.90
24146;DHT22;12308;50.948;4.706;2022-07-04T04:52:41;14.90;99.90
24146;DHT22;12308;50.948;4.706;2022-07-04T04:55:07;15.00;99.90
24146;DHT22;12308;50.948;4.706;2022-07-04T04:57:34;15.10;99.90
24146;DHT22;12308;50.948;4.706;2022-07-04T05:00:00;15.30;99.90
24146;DHT22;12308;50.948;4.706;2022-07-04T05:02:26;15.30;99.90
24146;DHT22;12308;50.948;4.706;2022-07-04T05:04:53;15.30;99.90
24146;DHT22;12308;50.948;4.706;2022-07-04T05:07:19;15.30;99.90
24146;DHT22;12308;50.948;4.706;2022-07-04T05:09:44;15.40;99.90
24146;DHT22;12308;50.948;4.706;2022-07-04T05:12:10;15.60;99.90
24146;DHT22;12308;50.948;4.706;2022-07-04T05:14:36;15.60;99.90
24146;DHT22;12308;50.948;4.706;2022-07-04T05:17:02;15.70;99.90
24146;DHT22;12308;50.948;4.706;2022-07-04T05:19:28;15.80;99.90
24146;DHT22;12308;50.948;4.706;2022-07-04T05:21:54;15.90;99.90
24146;DHT22;12308;50.948;4.706;2022-07-04T05:24:20;15.90;99.90
24146;DHT22;12308;50.948;4.706;2022-07-04T05:26:46;16.00;99.90
24146;DHT22;12308;50.948;4.706;2022-07-04T05:29:11;16.10;99.90
24146;DHT22;12308;50.948;4.706;2022-07-04T05:31:38;16.30;99.90
24146;DHT22;12308;50.948;4.706;2022-07-04T05:34:03;16.40;99.90
24146;DHT22;12308;50.948;4.706;2022-07-04T05:36:29;16.40;99.90
24146;DHT22;12308;50.948;4.706;2022-07-04T05:38:56;16.50;99.90
24146;DHT22;12308;50.948;4.706;2022-07-04T05:41:22;16.50;99.90
24146;DHT22;12308;50.948;4.706;2022-07-04T05:43:48;16.60;99.90
24146;DHT22;12308;50.948;4.706;2022-07-04T05:46:14;16.60;99.90
24146;DHT22;12308;50.948;4.706;2022-07-04T05:48:40;16.70;99.90
24146;DHT22;12308;50.948;4.706;2022-07-04T05:51:05;16.70;99.90
24146;DHT22;12308;50.948;4.706;2022-07-04T05:53:31;16.80;99.90
24146;DHT22;12308;50.948;4.706;2022-07-04T05:55:57;17.00;99.90
24146;DHT22;12308;50.948;4.706;2022-07-04T05:58:23;17.00;99.90
24146;DHT22;12308;50.948;4.706;2022-07-04T06:00:49;17.00;99.90
24146;DHT22;12308;50.948;4.706;2022-07-04T06:03:14;17.10;99.90
24146;DHT22;12308;50.948;4.706;2022-07-04T06:05:40;17.10;99.90
24146;DHT22;12308;50.948;4.706;2022-07-04T06:08:06;17.20;99.90
24146;DHT22;12308;50.948;4.706;2022-07-04T06:10:31;17.20;99.90
24146;DHT22;12308;50.948;4.706;2022-07-04T06:12:57;17.40;99.90
24146;DHT22;12308;50.948;4.706;2022-07-04T06:15:22;17.30;99.90
24146;DHT22;12308;50.948;4.706;2022-07-04T06:17:48;17.40;99.90
24146;DHT22;12308;50.948;4.706;2022-07-04T06:20:14;17.30;99.90
24146;DHT22;12308;50.948;4.706;2022-07-04T06:22:46;17.30;99.90
24146;DHT22;12308;50.948;4.706;2022-07-04T06:25:12;17.40;99.90
24146;DHT22;12308;50.948;4.706;2022-07-04T06:27:38;17.50;99.90
24146;DHT22;12308;50.948;4.706;2022-07-04T06:30:05;17.40;99.90
24146;DHT22;12308;50.948;4.706;2022-07-04T06:32:37;17.60;99.90
24146;DHT22;12308;50.948;4.706;2022-07-04T06:35:06;17.60;99.90
24146;DHT22;12308;50.948;4.706;2022-07-04T06:37:50;17.70;99.90
24146;DHT22;12308;50.948;4.706;2022-07-04T06:40:16;17.70;99.90
24146;DHT22;12308;50.948;4.706;2022-07-04T06:42:42;17.80;99.90
24146;DHT22;12308;50.948;4.706;2022-07-04T06:45:08;18.00;99.90
24146;DHT22;12308;50.948;4.706;2022-07-04T06:47:34;18.00;99.90
24146;DHT22;12308;50.948;4.706;2022-07-04T06:50:00;18.10;99.90
24146;DHT22;12308;50.948;4.706;2022-07-04T06:52:25;18.10;99.90
24146;DHT22;12308;50.948;4.706;2022-07-04T06:54:51;18.10;99.90
24146;DHT22;12308;50.948;4.706;2022-07-04T06:57:17;18.00;99.90
24146;DHT22;12308;50.948;4.706;2022-07-04T06:59:42;18.20;99.90
24146;DHT22;12308;50.948;4.706;2022-07-04T07:02:08;18.50;99.90
24146;DHT22;12308;50.948;4.706;2022-07-04T07:04:33;18.70;99.90
24146;DHT22;12308;50.948;4.706;2022-07-04T07:06:59;18.70;99.90
24146;DHT22;12308;50.948;4.706;2022-07-04T07:09:25;18.80;99.90
24146;DHT22;12308;50.948;4.706;2022-07-04T07:11:50;19.00;99.90
24146;DHT22;12308;50.948;4.706;2022-07-04T07:14:16;19.00;99.90
24146;DHT22;12308;50.948;4.706;2022-07-04T07:16:42;19.20;99.90
24146;DHT22;12308;50.948;4.706;2022-07-04T07:19:07;19.30;99.90
24146;DHT22;12308;50.948;4.706;2022-07-04T07:21:33;19.40;99.90
24146;DHT22;12308;50.948;4.706;2022-07-04T07:23:59;19.50;99.90
24146;DHT22;12308;50.948;4.706;2022-07-04T07:26:25;19.60;99.90
24146;DHT22;12308;50.948;4.706;2022-07-04T07:28:51;19.70;99.90
24146;DHT22;12308;50.948;4.706;2022-07-04T07:31:17;19.90;99.90
24146;DHT22;12308;50.948;4.706;2022-07-04T07:33:43;19.80;99.90
24146;DHT22;12308;50.948;4.706;2022-07-04T07:36:08;19.80;99.90
24146;DHT22;12308;50.948;4.706;2022-07-04T07:38:35;19.90;99.90
24146;DHT22;12308;50.948;4.706;2022-07-04T07:41:00;19.90;99.90
24146;DHT22;12308;50.948;4.706;2022-07-04T07:43:26;19.90;99.90
24146;DHT22;12308;50.948;4.706;2022-07-04T07:45:52;19.90;99.90
24146;DHT22;12308;50.948;4.706;2022-07-04T07:48:18;20.00;99.90
24146;DHT22;12308;50.948;4.706;2022-07-04T07:50:43;20.20;99.90
24146;DHT22;12308;50.948;4.706;2022-07-04T07:53:09;20.40;99.90
24146;DHT22;12308;50.948;4.706;2022-07-04T07:55:35;20.40;99.90
24146;DHT22;12308;50.948;4.706;2022-07-04T07:58:01;20.50;99.90
24146;DHT22;12308;50.948;4.706;2022-07-04T08:00:27;20.50;99.90
24146;DHT22;12308;50.948;4.706;2022-07-04T08:02:52;20.40;99.90
24146;DHT22;12308;50.948;4.706;2022-07-04T08:05:40;20.30;99.90
24146;DHT22;12308;50.948;4.706;2022-07-04T08:08:06;20.40;99.90
24146;DHT22;12308;50.948;4.706;2022-07-04T08:10:32;20.40;99.90
24146;DHT22;12308;50.948;4.706;2022-07-04T08:12:58;20.50;99.90
24146;DHT22;12308;50.948;4.706;2022-07-04T08:15:24;20.60;99.90
24146;DHT22;12308;50.948;4.706;2022-07-04T08:17:50;20.70;99.90
24146;DHT22;12308;50.948;4.706;2022-07-04T08:20:16;20.80;99.90
24146;DHT22;12308;50.948;4.706;2022-07-04T08:22:42;20.80;99.90
24146;DHT22;12308;50.948;4.706;2022-07-04T08:25:08;20.70;99.90
24146;DHT22;12308;50.948;4.706;2022-07-04T08:27:33;20.90;99.90
24146;DHT22;12308;50.948;4.706;2022-07-04T08:30:00;20.90;99.90
24146;DHT22;12308;50.948;4.706;2022-07-04T08:32:26;21.10;99.90
24146;DHT22;12308;50.948;4.706;2022-07-04T08:34:52;21.10;99.90
24146;DHT22;12308;50.948;4.706;2022-07-04T08:37:18;21.20;99.90
24146;DHT22;12308;50.948;4.706;2022-07-04T08:39:43;21.20;99.90
24146;DHT22;12308;50.948;4.706;2022-07-04T08:42:20;21.00;99.90
24146;DHT22;12308;50.948;4.706;2022-07-04T08:44:51;21.10;99.90
24146;DHT22;12308;50.948;4.706;2022-07-04T08:47:19;21.10;99.90
24146;DHT22;12308;50.948;4.706;2022-07-04T08:52:39;21.40;99.90
24146;DHT22;12308;50.948;4.706;2022-07-04T08:55:07;21.40;99.90
24146;DHT22;12308;50.948;4.706;2022-07-04T08:57:52;21.40;99.90
24146;DHT22;12308;50.948;4.706;2022-07-04T09:00:37;21.40;99.90
24146;DHT22;12308;50.948;4.706;2022-07-04T09:03:04;21.50;99.90
24146;DHT22;12308;50.948;4.706;2022-07-04T09:05:31;21.70;99.90
24146;DHT22;12308;50.948;4.706;2022-07-04T09:08:01;21.80;99.90
24146;DHT22;12308;50.948;4.706;2022-07-04T09:10:27;21.90;99.90
24146;DHT22;12308;50.948;4.706;2022-07-04T09:12:53;22.00;99.90
24146;DHT22;12308;50.948;4.706;2022-07-04T09:15:19;22.10;99.90
24146;DHT22;12308;50.948;4.706;2022-07-04T09:17:45;22.20;99.90
24146;DHT22;12308;50.948;4.706;2022-07-04T09:20:19;22.10;99.90
24146;DHT22;12308;50.948;4.706;2022-07-04T09:22:47;22.10;99.90
24146;DHT22;12308;50.948;4.706;2022-07-04T09:25:14;22.10;99.90
24146;DHT22;12308;50.948;4.706;2022-07-04T09:27:45;22.20;99.90
24146;DHT22;12308;50.948;4.706;2022-07-04T09:30:14;22.00;99.90
24146;DHT22;12308;50.948;4.706;2022-07-04T09:32:45;22.20;99.90
24146;DHT22;12308;50.948;4.706;2022-07-04T09:35:20;22.40;99.90
24146;DHT22;12308;50.948;4.706;2022-07-04T09:37:52;22.60;99.90
24146;DHT22;12308;50.948;4.706;2022-07-04T09:42:49;22.70;99.90
24146;DHT22;12308;50.948;4.706;2022-07-04T09:45:15;22.70;99.90
24146;DHT22;12308;50.948;4.706;2022-07-04T09:47:41;22.70;99.90
24146;DHT22;12308;50.948;4.706;2022-07-04T09:52:59;22.80;99.90
24146;DHT22;12308;50.948;4.706;2022-07-04T09:55:28;22.80;99.90
24146;DHT22;12308;50.948;4.706;2022-07-04T09:57:56;22.90;99.90
24146;DHT22;12308;50.948;4.706;2022-07-04T10:00:28;23.10;99.90
24146;DHT22;12308;50.948;4.706;2022-07-04T10:02:55;23.30;99.90
24146;DHT22;12308;50.948;4.706;2022-07-04T10:05:28;23.40;99.90
24146;DHT22;12308;50.948;4.706;2022-07-04T10:07:56;23.60;99.90
24146;DHT22;12308;50.948;4.706;2022-07-04T10:12:56;23.80;99.90
24146;DHT22;12308;50.948;4.706;2022-07-04T10:15:22;23.50;99.90
24146;DHT22;12308;50.948;4.706;2022-07-04T10:17:48;23.60;99.90
24146;DHT22;12308;50.948;4.706;2022-07-04T10:20:14;23.90;99.90
24146;DHT22;12308;50.948;4.706;2022-07-04T10:22:41;23.90;99.90
24146;DHT22;12308;50.948;4.706;2022-07-04T10:25:08;24.10;99.90
24146;DHT22;12308;50.948;4.706;2022-07-04T10:27:34;24.10;99.90
24146;DHT22;12308;50.948;4.706;2022-07-04T10:30:03;24.10;99.90
24146;DHT22;12308;50.948;4.706;2022-07-04T10:32:30;24.00;99.90
24146;DHT22;12308;50.948;4.706;2022-07-04T10:34:56;24.10;99.90
24146;DHT22;12308;50.948;4.706;2022-07-04T10:37:21;24.00;99.90
24146;DHT22;12308;50.948;4.706;2022-07-04T10:39:48;23.90;99.90
24146;DHT22;12308;50.948;4.706;2022-07-04T10:42:24;24.00;99.90
24146;DHT22;12308;50.948;4.706;2022-07-04T10:44:50;24.10;99.90
24146;DHT22;12308;50.948;4.706;2022-07-04T10:47:25;24.00;99.90
24146;DHT22;12308;50.948;4.706;2022-07-04T10:49:56;23.80;99.90
24146;DHT22;12308;50.948;4.706;2022-07-04T10:52:22;23.90;99.90
24146;DHT22;12308;50.948;4.706;2022-07-04T10:54:47;24.10;99.90
24146;DHT22;12308;50.948;4.706;2022-07-04T10:57:17;24.20;99.90
24146;DHT22;12308;50.948;4.706;2022-07-04T11:00:05;24.10;99.90
24146;DHT22;12308;50.948;4.706;2022-07-04T11:02:32;24.00;99.90
24146;DHT22;12308;50.948;4.706;2022-07-04T11:17:57;25.00;99.90
24146;DHT22;12308;50.948;4.706;2022-07-04T11:20:26;25.30;99.90
24146;DHT22;12308;50.948;4.706;2022-07-04T11:22:52;25.30;99.90
24146;DHT22;12308;50.948;4.706;2022-07-04T11:25:18;25.30;99.90
24146;DHT22;12308;50.948;4.706;2022-07-04T11:27:44;25.10;99.90
24146;DHT22;12308;50.948;4.706;2022-07-04T11:30:10;24.80;99.90
24146;DHT22;12308;50.948;4.706;2022-07-04T11:32:37;24.50;99.90
24146;DHT22;12308;50.948;4.706;2022-07-04T11:35:04;24.40;99.90
24146;DHT22;12308;50.948;4.706;2022-07-04T11:37:30;24.40;99.90
24146;DHT22;12308;50.948;4.706;2022-07-04T11:39:56;24.20;99.90
24146;DHT22;12308;50.948;4.706;2022-07-04T11:43:04;24.30;99.90
24146;DHT22;12308;50.948;4.706;2022-07-04T11:45:49;24.40;99.90
24146;DHT22;12308;50.948;4.706;2022-07-04T11:48:24;24.70;99.90
24146;DHT22;12308;50.948;4.706;2022-07-04T11:50:50;25.00;99.90
24146;DHT22;12308;50.948;4.706;2022-07-04T11:53:16;25.10;99.90
24146;DHT22;12308;50.948;4.706;2022-07-04T11:55:56;25.50;99.90
24146;DHT22;12308;50.948;4.706;2022-07-04T11:58:23;25.80;99.90
24146;DHT22;12308;50.948;4.706;2022-07-04T12:00:48;25.70;99.90
24146;DHT22;12308;50.948;4.706;2022-07-04T12:03:14;25.50;99.90
24146;DHT22;12308;50.948;4.706;2022-07-04T12:05:40;25.50;99.90
24146;DHT22;12308;50.948;4.706;2022-07-04T12:08:07;25.70;99.90
24146;DHT22;12308;50.948;4.706;2022-07-04T12:10:34;25.90;99.90
24146;DHT22;12308;50.948;4.706;2022-07-04T12:13:02;25.80;99.90
24146;DHT22;12308;50.948;4.706;2022-07-04T12:15:42;25.50;99.90
24146;DHT22;12308;50.948;4.706;2022-07-04T12:18:37;25.60;99.90
24146;DHT22;12308;50.948;4.706;2022-07-04T12:21:16;25.30;99.90
24146;DHT22;12308;50.948;4.706;2022-07-04T12:23:54;25.20;99.90
24146;DHT22;12308;50.948;4.706;2022-07-04T12:26:20;25.30;99.90
24146;DHT22;12308;50.948;4.706;2022-07-04T12:28:46;25.50;99.90
24146;DHT22;12308;50.948;4.706;2022-07-04T12:31:12;25.60;99.90
24146;DHT22;12308;50.948;4.706;2022-07-04T12:33:38;25.10;99.90
24146;DHT22;12308;50.948;4.706;2022-07-04T12:36:04;24.90;99.90
24146;DHT22;12308;50.948;4.706;2022-07-04T12:41:07;24.90;99.90
24146;DHT22;12308;50.948;4.706;2022-07-04T12:46:09;25.30;99.90
24146;DHT22;12308;50.948;4.706;2022-07-04T12:48:37;25.50;99.90
24146;DHT22;12308;50.948;4.706;2022-07-04T12:51:14;25.60;99.90
24146;DHT22;12308;50.948;4.706;2022-07-04T12:53:42;25.60;99.90
24146;DHT22;12308;50.948;4.706;2022-07-04T12:56:08;25.40;99.90
24146;DHT22;12308;50.948;4.706;2022-07-04T12:58:34;25.60;99.90
24146;DHT22;12308;50.948;4.706;2022-07-04T13:01:00;25.70;99.90
24146;DHT22;12308;50.948;4.706;2022-07-04T13:03:26;25.90;99.90
24146;DHT22;12308;50.948;4.706;2022-07-04T13:05:52;25.90;99.90
24146;DHT22;12308;50.948;4.706;2022-07-04T13:08:18;25.90;99.90
24146;DHT22;12308;50.948;4.706;2022-07-04T13:10:43;25.90;99.90
24146;DHT22;12308;50.948;4.706;2022-07-04T13:13:09;25.60;99.90
24146;DHT22;12308;50.948;4.706;2022-07-04T13:15:34;25.60;99.90
24146;DHT22;12308;50.948;4.706;2022-07-04T13:18:00;25.80;99.90
24146;DHT22;12308;50.948;4.706;2022-07-04T13:20:27;25.70;99.90
24146;DHT22;12308;50.948;4.706;2022-07-04T13:22:53;25.50;99.90
24146;DHT22;12308;50.948;4.706;2022-07-04T13:25:19;25.60;99.90
24146;DHT22;12308;50.948;4.706;2022-07-04T13:27:45;25.70;99.90
24146;DHT22;12308;50.948;4.706;2022-07-04T13:30:11;25.80;99.90
24146;DHT22;12308;50.948;4.706;2022-07-04T13:32:37;25.80;99.90
24146;DHT22;12308;50.948;4.706;2022-07-04T13:35:04;25.50;99.90
24146;DHT22;12308;50.948;4.706;2022-07-04T13:37:29;25.20;99.90
24146;DHT22;12308;50.948;4.706;2022-07-04T13:39:55;25.10;99.90
24146;DHT22;12308;50.948;4.706;2022-07-04T13:42:21;25.00;99.90
24146;DHT22;12308;50.948;4.706;2022-07-04T13:45:22;25.00;99.90
24146;DHT22;12308;50.948;4.706;2022-07-04T13:47:48;25.20;99.90
24146;DHT22;12308;50.948;4.706;2022-07-04T13:50:13;25.40;99.90
24146;DHT22;12308;50.948;4.706;2022-07-04T13:52:39;25.50;99.90
24146;DHT22;12308;50.948;4.706;2022-07-04T13:55:05;26.00;99.90
24146;DHT22;12308;50.948;4.706;2022-07-04T13:57:31;26.20;99.90
24146;DHT22;12308;50.948;4.706;2022-07-04T13:59:57;26.20;99.90
24146;DHT22;12308;50.948;4.706;2022-07-04T14:02:22;26.30;99.90
24146;DHT22;12308;50.948;4.706;2022-07-04T14:04:48;26.40;99.90
24146;DHT22;12308;50.948;4.706;2022-07-04T14:07:14;26.30;99.90
24146;DHT22;12308;50.948;4.706;2022-07-04T14:09:39;26.10;99.90
24146;DHT22;12308;50.948;4.706;2022-07-04T14:12:05;26.10;99.90
24146;DHT22;12308;50.948;4.706;2022-07-04T14:14:31;26.10;99.90
24146;DHT22;12308;50.948;4.706;2022-07-04T14:16:57;26.10;99.90
24146;DHT22;12308;50.948;4.706;2022-07-04T14:19:22;26.10;99.90
24146;DHT22;12308;50.948;4.706;2022-07-04T14:21:48;26.20;99.90
24146;DHT22;12308;50.948;4.706;2022-07-04T14:24:14;26.10;99.90
24146;DHT22;12308;50.948;4.706;2022-07-04T14:26:42;26.20;99.90
24146;DHT22;12308;50.948;4.706;2022-07-04T14:29:07;26.10;99.90
24146;DHT22;12308;50.948;4.706;2022-07-04T14:31:33;26.10;99.90
24146;DHT22;12308;50.948;4.706;2022-07-04T14:33:59;26.50;99.90
24146;DHT22;12308;50.948;4.706;2022-07-04T14:36:24;26.50;99.90
24146;DHT22;12308;50.948;4.706;2022-07-04T14:38:50;26.60;99.90
24146;DHT22;12308;50.948;4.706;2022-07-04T14:41:15;26.60;99.90
24146;DHT22;12308;50.948;4.706;2022-07-04T14:43:43;26.60;99.90
24146;DHT22;12308;50.948;4.706;2022-07-04T14:46:09;26.70;99.90
24146;DHT22;12308;50.948;4.706;2022-07-04T14:48:36;26.80;99.90
24146;DHT22;12308;50.948;4.706;2022-07-04T14:51:03;27.00;99.90
24146;DHT22;12308;50.948;4.706;2022-07-04T14:53:29;26.90;99.90
24146;DHT22;12308;50.948;4.706;2022-07-04T14:55:54;27.00;99.90
24146;DHT22;12308;50.948;4.706;2022-07-04T14:58:20;27.00;99.90
24146;DHT22;12308;50.948;4.706;2022-07-04T15:00:46;27.00;99.90
24146;DHT22;12308;50.948;4.706;2022-07-04T15:03:12;26.80;99.90
24146;DHT22;12308;50.948;4.706;2022-07-04T15:05:38;26.70;99.80
24146;DHT22;12308;50.948;4.706;2022-07-04T15:08:03;26.40;99.90
24146;DHT22;12308;50.948;4.706;2022-07-04T15:10:29;26.30;99.90
24146;DHT22;12308;50.948;4.706;2022-07-04T15:12:55;26.00;99.90
24146;DHT22;12308;50.948;4.706;2022-07-04T15:15:20;26.10;99.90
24146;DHT22;12308;50.948;4.706;2022-07-04T15:17:46;26.00;99.90
24146;DHT22;12308;50.948;4.706;2022-07-04T15:20:13;26.20;99.90
24146;DHT22;12308;50.948;4.706;2022-07-04T15:22:57;26.40;99.90
24146;DHT22;12308;50.948;4.706;2022-07-04T15:25:41;26.60;99.90
24146;DHT22;12308;50.948;4.706;2022-07-04T15:28:07;26.80;99.90
24146;DHT22;12308;50.948;4.706;2022-07-04T15:30:33;27.00;99.10
24146;DHT22;12308;50.948;4.706;2022-07-04T15:32:58;26.80;99.30
24146;DHT22;12308;50.948;4.706;2022-07-04T15:35:24;26.80;99.40
24146;DHT22;12308;50.948;4.706;2022-07-04T15:37:50;26.60;99.40
24146;DHT22;12308;50.948;4.706;2022-07-04T15:40:17;26.70;99.90
24146;DHT22;12308;50.948;4.706;2022-07-04T15:42:42;26.60;99.90
24146;DHT22;12308;50.948;4.706;2022-07-04T15:45:08;26.90;99.90
24146;DHT22;12308;50.948;4.706;2022-07-04T15:47:34;26.90;99.90
24146;DHT22;12308;50.948;4.706;2022-07-04T15:50:00;26.80;99.20
24146;DHT22;12308;50.948;4.706;2022-07-04T15:52:26;26.70;99.90
24146;DHT22;12308;50.948;4.706;2022-07-04T15:54:53;26.60;99.90
24146;DHT22;12308;50.948;4.706;2022-07-04T15:57:19;26.80;99.90